9PS7 weather

W S Lee & Sons Inc Heliport
Duncansville, Pennsylvania, United States

Public forecast

Using degrees Fahrenheit for public forecast. Weather courtesy of forecast.io.

Closest aviation weather report (METAR) to W S Lee & Sons Inc Heliport

Closest report is Altoona Blair County Airport, 10.3 nm (19.1 km) SSE. Retrieved 2019/12/15 11:53 UTC (58 minutes ago):

KAOO 151153Z AUTO 27018G29KT 10SM SCT030 OVC046 04/M02 A2975 RMK AO2 PK WND 28032/1142 SLP086 70048 T00391022 10044 20028 53025

Closest aviation forecast (TAF) to W S Lee & Sons Inc Heliport

Closest forecast is Altoona Blair County Airport, 10.3 nm (19.1 km) SSE. Retrieved 2019/12/15 12:51 UTC (14 seconds ago):

TAF KAOO 151148Z 1512/1612 27015G23KT P6SM OVC025 FM151400 28018G26KT P6SM OVC040 FM152100 28013G21KT P6SM BKN200 FM160000 28007KT P6SM BKN150 FM160800 09004KT 1 1/2SM -SN OVC025